sensor_id;sensor_type;location;lat;lon;timestamp;P1;durP1;ratioP1;P2;durP2;ratioP2
40637;SDS011;26336;44.696;10.622;2023-07-09T00:02:59;9.10;;;5.05;;
40637;SDS011;26336;44.696;10.622;2023-07-09T00:06:02;9.05;;;5.15;;
40637;SDS011;26336;44.696;10.622;2023-07-09T00:09:14;6.35;;;4.78;;
40637;SDS011;26336;44.696;10.622;2023-07-09T00:12:19;7.60;;;4.97;;
40637;SDS011;26336;44.696;10.622;2023-07-09T00:15:24;8.13;;;4.93;;
40637;SDS011;26336;44.696;10.622;2023-07-09T00:18:30;7.20;;;5.25;;
40637;SDS011;26336;44.696;10.622;2023-07-09T00:21:34;6.88;;;4.95;;
40637;SDS011;26336;44.696;10.622;2023-07-09T00:24:39;7.63;;;4.85;;
40637;SDS011;26336;44.696;10.622;2023-07-09T00:27:43;10.93;;;5.20;;
40637;SDS011;26336;44.696;10.622;2023-07-09T00:30:51;7.25;;;4.35;;
40637;SDS011;26336;44.696;10.622;2023-07-09T00:33:55;5.70;;;4.30;;
40637;SDS011;26336;44.696;10.622;2023-07-09T00:36:59;8.50;;;5.07;;
40637;SDS011;26336;44.696;10.622;2023-07-09T00:40:08;6.35;;;4.53;;
40637;SDS011;26336;44.696;10.622;2023-07-09T00:43:25;7.00;;;5.53;;
40637;SDS011;26336;44.696;10.622;2023-07-09T00:49:40;6.38;;;4.53;;
40637;SDS011;26336;44.696;10.622;2023-07-09T00:52:51;6.55;;;4.80;;
40637;SDS011;26336;44.696;10.622;2023-07-09T00:56:04;7.75;;;5.03;;
40637;SDS011;26336;44.696;10.622;2023-07-09T00:59:14;7.43;;;5.18;;
40637;SDS011;26336;44.696;10.622;2023-07-09T01:02:21;6.93;;;4.57;;
40637;SDS011;26336;44.696;10.622;2023-07-09T01:05:27;7.80;;;5.15;;
40637;SDS011;26336;44.696;10.622;2023-07-09T01:08:31;6.90;;;4.93;;
40637;SDS011;26336;44.696;10.622;2023-07-09T01:11:37;7.53;;;5.10;;
40637;SDS011;26336;44.696;10.622;2023-07-09T01:14:42;5.30;;;4.25;;
40637;SDS011;26336;44.696;10.622;2023-07-09T01:17:46;7.72;;;5.30;;
40637;SDS011;26336;44.696;10.622;2023-07-09T01:20:51;7.10;;;5.13;;
40637;SDS011;26336;44.696;10.622;2023-07-09T01:24:13;6.18;;;4.68;;
40637;SDS011;26336;44.696;10.622;2023-07-09T01:27:45;8.05;;;5.30;;
40637;SDS011;26336;44.696;10.622;2023-07-09T01:30:50;6.80;;;5.18;;
40637;SDS011;26336;44.696;10.622;2023-07-09T01:33:57;7.93;;;5.15;;
40637;SDS011;26336;44.696;10.622;2023-07-09T01:37:01;7.68;;;5.15;;
40637;SDS011;26336;44.696;10.622;2023-07-09T01:40:06;5.35;;;4.68;;
40637;SDS011;26336;44.696;10.622;2023-07-09T01:43:12;4.80;;;4.30;;
40637;SDS011;26336;44.696;10.622;2023-07-09T01:46:16;7.30;;;4.90;;
40637;SDS011;26336;44.696;10.622;2023-07-09T01:49:20;5.63;;;4.20;;
40637;SDS011;26336;44.696;10.622;2023-07-09T01:52:25;7.05;;;5.10;;
40637;SDS011;26336;44.696;10.622;2023-07-09T01:55:31;5.60;;;4.60;;
40637;SDS011;26336;44.696;10.622;2023-07-09T01:58:36;5.95;;;4.57;;
40637;SDS011;26336;44.696;10.622;2023-07-09T02:01:46;6.38;;;4.93;;
40637;SDS011;26336;44.696;10.622;2023-07-09T02:04:51;8.77;;;4.97;;
40637;SDS011;26336;44.696;10.622;2023-07-09T02:07:56;5.72;;;4.57;;
40637;SDS011;26336;44.696;10.622;2023-07-09T02:11:01;5.53;;;4.55;;
40637;SDS011;26336;44.696;10.622;2023-07-09T02:14:05;9.63;;;5.30;;
40637;SDS011;26336;44.696;10.622;2023-07-09T02:17:09;7.72;;;4.93;;
40637;SDS011;26336;44.696;10.622;2023-07-09T02:20:14;7.03;;;4.90;;
40637;SDS011;26336;44.696;10.622;2023-07-09T02:23:18;6.80;;;4.75;;
40637;SDS011;26336;44.696;10.622;2023-07-09T02:26:22;6.85;;;4.82;;
40637;SDS011;26336;44.696;10.622;2023-07-09T02:29:26;6.68;;;5.32;;
40637;SDS011;26336;44.696;10.622;2023-07-09T02:32:31;8.57;;;5.47;;
40637;SDS011;26336;44.696;10.622;2023-07-09T02:35:35;6.25;;;4.78;;
40637;SDS011;26336;44.696;10.622;2023-07-09T02:38:39;9.65;;;5.22;;
40637;SDS011;26336;44.696;10.622;2023-07-09T02:41:43;6.55;;;4.72;;
40637;SDS011;26336;44.696;10.622;2023-07-09T02:44:48;7.38;;;5.05;;
40637;SDS011;26336;44.696;10.622;2023-07-09T02:47:52;6.53;;;5.07;;
40637;SDS011;26336;44.696;10.622;2023-07-09T02:50:56;6.80;;;4.97;;
40637;SDS011;26336;44.696;10.622;2023-07-09T02:54:01;8.65;;;5.47;;
40637;SDS011;26336;44.696;10.622;2023-07-09T02:57:09;7.63;;;4.90;;
40637;SDS011;26336;44.696;10.622;2023-07-09T03:00:13;6.95;;;5.63;;
40637;SDS011;26336;44.696;10.622;2023-07-09T03:03:17;7.30;;;4.88;;
40637;SDS011;26336;44.696;10.622;2023-07-09T03:06:22;9.27;;;5.03;;
40637;SDS011;26336;44.696;10.622;2023-07-09T03:09:27;7.80;;;5.28;;
40637;SDS011;26336;44.696;10.622;2023-07-09T03:12:31;7.68;;;5.03;;
40637;SDS011;26336;44.696;10.622;2023-07-09T03:15:36;6.70;;;5.03;;
40637;SDS011;26336;44.696;10.622;2023-07-09T03:18:42;8.60;;;6.20;;
40637;SDS011;26336;44.696;10.622;2023-07-09T03:21:46;7.63;;;5.50;;
40637;SDS011;26336;44.696;10.622;2023-07-09T03:24:53;11.02;;;5.95;;
40637;SDS011;26336;44.696;10.622;2023-07-09T03:27:57;8.90;;;6.18;;
40637;SDS011;26336;44.696;10.622;2023-07-09T03:31:03;8.10;;;5.30;;
40637;SDS011;26336;44.696;10.622;2023-07-09T03:34:07;7.35;;;5.80;;
40637;SDS011;26336;44.696;10.622;2023-07-09T03:37:11;9.82;;;5.90;;
40637;SDS011;26336;44.696;10.622;2023-07-09T03:40:20;7.55;;;5.13;;
40637;SDS011;26336;44.696;10.622;2023-07-09T03:43:27;8.02;;;5.78;;
40637;SDS011;26336;44.696;10.622;2023-07-09T03:46:31;11.95;;;5.22;;
40637;SDS011;26336;44.696;10.622;2023-07-09T03:49:34;7.35;;;5.95;;
40637;SDS011;26336;44.696;10.622;2023-07-09T03:52:38;8.43;;;5.95;;
40637;SDS011;26336;44.696;10.622;2023-07-09T03:55:44;8.35;;;6.13;;
40637;SDS011;26336;44.696;10.622;2023-07-09T03:58:49;7.75;;;6.05;;
40637;SDS011;26336;44.696;10.622;2023-07-09T04:01:57;8.20;;;5.97;;
40637;SDS011;26336;44.696;10.622;2023-07-09T04:05:01;9.13;;;5.85;;
40637;SDS011;26336;44.696;10.622;2023-07-09T04:08:04;8.18;;;6.63;;
40637;SDS011;26336;44.696;10.622;2023-07-09T04:11:09;10.60;;;7.50;;
40637;SDS011;26336;44.696;10.622;2023-07-09T04:14:13;71.93;;;38.63;;
40637;SDS011;26336;44.696;10.622;2023-07-09T04:17:17;26.80;;;15.65;;
40637;SDS011;26336;44.696;10.622;2023-07-09T04:20:20;31.27;;;17.67;;
40637;SDS011;26336;44.696;10.622;2023-07-09T04:23:25;64.13;;;38.40;;
40637;SDS011;26336;44.696;10.622;2023-07-09T04:26:29;88.25;;;50.47;;
40637;SDS011;26336;44.696;10.622;2023-07-09T04:29:33;72.05;;;42.88;;
40637;SDS011;26336;44.696;10.622;2023-07-09T04:32:44;52.50;;;31.52;;
40637;SDS011;26336;44.696;10.622;2023-07-09T04:35:48;47.83;;;27.77;;
40637;SDS011;26336;44.696;10.622;2023-07-09T04:38:52;26.58;;;17.30;;
40637;SDS011;26336;44.696;10.622;2023-07-09T04:41:56;22.08;;;14.43;;
40637;SDS011;26336;44.696;10.622;2023-07-09T04:45:00;15.15;;;10.52;;
40637;SDS011;26336;44.696;10.622;2023-07-09T04:48:05;15.93;;;10.93;;
40637;SDS011;26336;44.696;10.622;2023-07-09T04:51:10;38.03;;;22.65;;
40637;SDS011;26336;44.696;10.622;2023-07-09T04:54:14;22.45;;;14.65;;
40637;SDS011;26336;44.696;10.622;2023-07-09T04:57:19;16.63;;;11.35;;
40637;SDS011;26336;44.696;10.622;2023-07-09T05:00:23;20.55;;;14.90;;
40637;SDS011;26336;44.696;10.622;2023-07-09T05:03:26;25.05;;;17.60;;
40637;SDS011;26336;44.696;10.622;2023-07-09T05:06:30;19.90;;;17.05;;
40637;SDS011;26336;44.696;10.622;2023-07-09T05:09:34;19.45;;;15.57;;
40637;SDS011;26336;44.696;10.622;2023-07-09T05:12:48;19.52;;;17.48;;
40637;SDS011;26336;44.696;10.622;2023-07-09T05:15:54;15.07;;;13.35;;
40637;SDS011;26336;44.696;10.622;2023-07-09T05:18:58;16.67;;;12.68;;
40637;SDS011;26336;44.696;10.622;2023-07-09T05:22:02;14.88;;;11.55;;
40637;SDS011;26336;44.696;10.622;2023-07-09T05:25:06;15.43;;;11.65;;
40637;SDS011;26336;44.696;10.622;2023-07-09T05:28:11;33.90;;;22.42;;
40637;SDS011;26336;44.696;10.622;2023-07-09T05:31:15;27.88;;;20.52;;
40637;SDS011;26336;44.696;10.622;2023-07-09T05:34:19;13.32;;;9.43;;
40637;SDS011;26336;44.696;10.622;2023-07-09T05:37:24;11.88;;;6.97;;
40637;SDS011;26336;44.696;10.622;2023-07-09T05:40:28;7.70;;;6.57;;
40637;SDS011;26336;44.696;10.622;2023-07-09T05:43:32;9.65;;;7.10;;
40637;SDS011;26336;44.696;10.622;2023-07-09T05:46:36;12.38;;;8.07;;
40637;SDS011;26336;44.696;10.622;2023-07-09T05:49:40;12.70;;;6.82;;
40637;SDS011;26336;44.696;10.622;2023-07-09T05:52:45;11.00;;;6.60;;
40637;SDS011;26336;44.696;10.622;2023-07-09T05:55:55;10.45;;;6.57;;
40637;SDS011;26336;44.696;10.622;2023-07-09T05:58:59;8.80;;;6.47;;
40637;SDS011;26336;44.696;10.622;2023-07-09T06:02:03;9.32;;;6.00;;
40637;SDS011;26336;44.696;10.622;2023-07-09T06:05:07;9.45;;;6.22;;
40637;SDS011;26336;44.696;10.622;2023-07-09T06:08:14;7.32;;;5.80;;
40637;SDS011;26336;44.696;10.622;2023-07-09T06:11:22;10.50;;;6.82;;
40637;SDS011;26336;44.696;10.622;2023-07-09T06:14:27;8.30;;;6.47;;
40637;SDS011;26336;44.696;10.622;2023-07-09T06:17:30;8.38;;;6.43;;
40637;SDS011;26336;44.696;10.622;2023-07-09T06:20:34;8.32;;;5.70;;
40637;SDS011;26336;44.696;10.622;2023-07-09T06:23:38;13.93;;;6.43;;
40637;SDS011;26336;44.696;10.622;2023-07-09T06:26:45;8.88;;;5.53;;
40637;SDS011;26336;44.696;10.622;2023-07-09T06:29:49;9.52;;;6.97;;
40637;SDS011;26336;44.696;10.622;2023-07-09T06:32:53;8.05;;;5.82;;
40637;SDS011;26336;44.696;10.622;2023-07-09T06:35:58;9.85;;;6.05;;
40637;SDS011;26336;44.696;10.622;2023-07-09T06:39:06;8.10;;;5.82;;
40637;SDS011;26336;44.696;10.622;2023-07-09T06:42:10;10.32;;;7.03;;
40637;SDS011;26336;44.696;10.622;2023-07-09T06:45:33;10.65;;;6.55;;
40637;SDS011;26336;44.696;10.622;2023-07-09T06:48:37;11.98;;;6.80;;
40637;SDS011;26336;44.696;10.622;2023-07-09T06:51:41;7.28;;;6.03;;
40637;SDS011;26336;44.696;10.622;2023-07-09T06:54:47;10.43;;;6.57;;
40637;SDS011;26336;44.696;10.622;2023-07-09T06:57:52;7.95;;;6.53;;
40637;SDS011;26336;44.696;10.622;2023-07-09T07:00:56;8.07;;;6.68;;
40637;SDS011;26336;44.696;10.622;2023-07-09T07:04:01;13.25;;;7.40;;
40637;SDS011;26336;44.696;10.622;2023-07-09T07:07:05;8.93;;;6.75;;
40637;SDS011;26336;44.696;10.622;2023-07-09T07:10:10;12.73;;;6.68;;
40637;SDS011;26336;44.696;10.622;2023-07-09T07:13:14;10.70;;;6.82;;
40637;SDS011;26336;44.696;10.622;2023-07-09T07:16:18;9.75;;;6.35;;
40637;SDS011;26336;44.696;10.622;2023-07-09T07:19:22;8.88;;;6.68;;
40637;SDS011;26336;44.696;10.622;2023-07-09T07:22:26;9.25;;;6.65;;
40637;SDS011;26336;44.696;10.622;2023-07-09T07:25:31;11.70;;;6.57;;
40637;SDS011;26336;44.696;10.622;2023-07-09T07:28:36;10.18;;;6.90;;
40637;SDS011;26336;44.696;10.622;2023-07-09T07:31:40;10.77;;;6.63;;
40637;SDS011;26336;44.696;10.622;2023-07-09T07:34:44;11.00;;;7.18;;
40637;SDS011;26336;44.696;10.622;2023-07-09T07:37:50;10.43;;;5.88;;
40637;SDS011;26336;44.696;10.622;2023-07-09T07:40:55;10.55;;;6.15;;
40637;SDS011;26336;44.696;10.622;2023-07-09T07:43:59;8.80;;;6.15;;
40637;SDS011;26336;44.696;10.622;2023-07-09T07:47:04;11.57;;;6.85;;
40637;SDS011;26336;44.696;10.622;2023-07-09T07:50:08;10.73;;;7.18;;
40637;SDS011;26336;44.696;10.622;2023-07-09T07:53:14;10.93;;;7.30;;
40637;SDS011;26336;44.696;10.622;2023-07-09T07:56:18;11.68;;;7.32;;
40637;SDS011;26336;44.696;10.622;2023-07-09T07:59:22;9.70;;;6.85;;
40637;SDS011;26336;44.696;10.622;2023-07-09T08:02:26;9.55;;;6.38;;
40637;SDS011;26336;44.696;10.622;2023-07-09T08:05:30;11.60;;;6.90;;
40637;SDS011;26336;44.696;10.622;2023-07-09T08:08:34;7.70;;;6.72;;
40637;SDS011;26336;44.696;10.622;2023-07-09T08:11:38;14.05;;;7.43;;
40637;SDS011;26336;44.696;10.622;2023-07-09T08:14:44;9.85;;;6.47;;
40637;SDS011;26336;44.696;10.622;2023-07-09T08:17:49;12.38;;;7.45;;
40637;SDS011;26336;44.696;10.622;2023-07-09T08:20:53;8.70;;;6.90;;
40637;SDS011;26336;44.696;10.622;2023-07-09T08:23:57;9.00;;;7.00;;
40637;SDS011;26336;44.696;10.622;2023-07-09T08:27:00;9.32;;;6.65;;
40637;SDS011;26336;44.696;10.622;2023-07-09T08:30:07;11.88;;;7.00;;
40637;SDS011;26336;44.696;10.622;2023-07-09T08:33:11;12.65;;;7.18;;
40637;SDS011;26336;44.696;10.622;2023-07-09T08:36:16;9.13;;;5.68;;
40637;SDS011;26336;44.696;10.622;2023-07-09T08:39:21;9.25;;;6.40;;
40637;SDS011;26336;44.696;10.622;2023-07-09T08:42:29;8.75;;;6.68;;
40637;SDS011;26336;44.696;10.622;2023-07-09T08:45:45;10.10;;;7.57;;
40637;SDS011;26336;44.696;10.622;2023-07-09T08:49:00;7.75;;;6.57;;
40637;SDS011;26336;44.696;10.622;2023-07-09T08:52:14;9.35;;;7.18;;
40637;SDS011;26336;44.696;10.622;2023-07-09T08:55:25;8.52;;;6.97;;
40637;SDS011;26336;44.696;10.622;2023-07-09T08:58:33;12.93;;;6.20;;
40637;SDS011;26336;44.696;10.622;2023-07-09T09:01:38;9.35;;;6.28;;
40637;SDS011;26336;44.696;10.622;2023-07-09T09:04:53;9.88;;;6.85;;
40637;SDS011;26336;44.696;10.622;2023-07-09T09:07:58;10.38;;;6.75;;
40637;SDS011;26336;44.696;10.622;2023-07-09T09:11:10;9.40;;;6.05;;
40637;SDS011;26336;44.696;10.622;2023-07-09T09:14:31;8.40;;;5.50;;
40637;SDS011;26336;44.696;10.622;2023-07-09T09:17:40;8.93;;;5.68;;
40637;SDS011;26336;44.696;10.622;2023-07-09T09:20:46;11.85;;;6.93;;
40637;SDS011;26336;44.696;10.622;2023-07-09T09:23:56;11.38;;;6.95;;
40637;SDS011;26336;44.696;10.622;2023-07-09T09:27:03;19.90;;;8.98;;
40637;SDS011;26336;44.696;10.622;2023-07-09T09:30:18;12.07;;;7.80;;
40637;SDS011;26336;44.696;10.622;2023-07-09T09:33:23;11.23;;;7.85;;
40637;SDS011;26336;44.696;10.622;2023-07-09T09:36:27;9.20;;;7.63;;
40637;SDS011;26336;44.696;10.622;2023-07-09T09:39:31;8.35;;;6.50;;
40637;SDS011;26336;44.696;10.622;2023-07-09T09:42:35;9.65;;;7.45;;
40637;SDS011;26336;44.696;10.622;2023-07-09T09:45:39;14.80;;;6.53;;
40637;SDS011;26336;44.696;10.622;2023-07-09T09:48:45;10.07;;;6.63;;
40637;SDS011;26336;44.696;10.622;2023-07-09T09:51:51;10.15;;;7.22;;
40637;SDS011;26336;44.696;10.622;2023-07-09T09:54:55;9.23;;;6.78;;
40637;SDS011;26336;44.696;10.622;2023-07-09T09:58:11;10.15;;;6.47;;
40637;SDS011;26336;44.696;10.622;2023-07-09T10:01:17;9.95;;;6.28;;
40637;SDS011;26336;44.696;10.622;2023-07-09T10:04:22;10.93;;;7.68;;
40637;SDS011;26336;44.696;10.622;2023-07-09T10:07:34;10.35;;;7.60;;
40637;SDS011;26336;44.696;10.622;2023-07-09T10:10:42;10.13;;;7.20;;
40637;SDS011;26336;44.696;10.622;2023-07-09T10:13:49;11.02;;;6.70;;
40637;SDS011;26336;44.696;10.622;2023-07-09T10:17:21;11.63;;;5.93;;
40637;SDS011;26336;44.696;10.622;2023-07-09T10:28:01;12.25;;;6.38;;
40637;SDS011;26336;44.696;10.622;2023-07-09T10:31:28;11.30;;;6.38;;
40637;SDS011;26336;44.696;10.622;2023-07-09T10:35:04;7.78;;;5.75;;
40637;SDS011;26336;44.696;10.622;2023-07-09T10:41:44;13.82;;;6.70;;
40637;SDS011;26336;44.696;10.622;2023-07-09T10:45:02;8.27;;;5.25;;
40637;SDS011;26336;44.696;10.622;2023-07-09T10:48:34;5.60;;;4.80;;
40637;SDS011;26336;44.696;10.622;2023-07-09T10:51:54;8.65;;;5.05;;
40637;SDS011;26336;44.696;10.622;2023-07-09T10:55:28;8.15;;;4.88;;
40637;SDS011;26336;44.696;10.622;2023-07-09T11:02:21;9.35;;;4.97;;
40637;SDS011;26336;44.696;10.622;2023-07-09T11:05:32;5.65;;;4.97;;
40637;SDS011;26336;44.696;10.622;2023-07-09T11:08:37;7.18;;;5.40;;
40637;SDS011;26336;44.696;10.622;2023-07-09T11:11:45;6.05;;;4.93;;
40637;SDS011;26336;44.696;10.622;2023-07-09T11:18:25;7.07;;;5.13;;
40637;SDS011;26336;44.696;10.622;2023-07-09T11:25:10;8.40;;;6.00;;
40637;SDS011;26336;44.696;10.622;2023-07-09T11:28:16;7.38;;;6.05;;
40637;SDS011;26336;44.696;10.622;2023-07-09T11:31:24;8.75;;;6.00;;
40637;SDS011;26336;44.696;10.622;2023-07-09T11:34:44;14.18;;;6.63;;
40637;SDS011;26336;44.696;10.622;2023-07-09T11:40:56;6.15;;;5.53;;
40637;SDS011;26336;44.696;10.622;2023-07-09T11:44:04;6.05;;;5.43;;
40637;SDS011;26336;44.696;10.622;2023-07-09T11:50:53;5.82;;;5.15;;
40637;SDS011;26336;44.696;10.622;2023-07-09T11:53:59;6.68;;;5.60;;
40637;SDS011;26336;44.696;10.622;2023-07-09T11:57:11;7.03;;;5.45;;
40637;SDS011;26336;44.696;10.622;2023-07-09T12:00:20;7.45;;;5.75;;
40637;SDS011;26336;44.696;10.622;2023-07-09T12:06:32;8.75;;;6.28;;
40637;SDS011;26336;44.696;10.622;2023-07-09T12:09:39;6.80;;;5.45;;
40637;SDS011;26336;44.696;10.622;2023-07-09T12:12:53;7.72;;;5.78;;
40637;SDS011;26336;44.696;10.622;2023-07-09T12:16:01;7.32;;;5.72;;
40637;SDS011;26336;44.696;10.622;2023-07-09T12:19:06;9.13;;;6.13;;
40637;SDS011;26336;44.696;10.622;2023-07-09T12:22:15;6.50;;;5.60;;
40637;SDS011;26336;44.696;10.622;2023-07-09T12:25:23;7.95;;;5.38;;
40637;SDS011;26336;44.696;10.622;2023-07-09T12:28:30;10.25;;;6.10;;
40637;SDS011;26336;44.696;10.622;2023-07-09T12:31:39;9.93;;;5.78;;
40637;SDS011;26336;44.696;10.622;2023-07-09T12:34:46;8.20;;;5.50;;
40637;SDS011;26336;44.696;10.622;2023-07-09T12:37:53;8.18;;;5.68;;
40637;SDS011;26336;44.696;10.622;2023-07-09T12:41:00;7.72;;;5.35;;
40637;SDS011;26336;44.696;10.622;2023-07-09T12:44:08;11.20;;;5.60;;
40637;SDS011;26336;44.696;10.622;2023-07-09T12:47:23;10.70;;;6.20;;
40637;SDS011;26336;44.696;10.622;2023-07-09T12:50:32;6.15;;;5.45;;
40637;SDS011;26336;44.696;10.622;2023-07-09T12:53:38;7.88;;;5.72;;
40637;SDS011;26336;44.696;10.622;2023-07-09T12:56:43;6.72;;;5.40;;
40637;SDS011;26336;44.696;10.622;2023-07-09T12:59:56;8.77;;;5.22;;
40637;SDS011;26336;44.696;10.622;2023-07-09T13:03:00;6.72;;;5.78;;
40637;SDS011;26336;44.696;10.622;2023-07-09T13:06:06;8.15;;;5.55;;
40637;SDS011;26336;44.696;10.622;2023-07-09T13:09:33;8.75;;;5.32;;
40637;SDS011;26336;44.696;10.622;2023-07-09T13:12:38;10.70;;;5.72;;
40637;SDS011;26336;44.696;10.622;2023-07-09T13:15:47;7.05;;;5.82;;
40637;SDS011;26336;44.696;10.622;2023-07-09T13:19:04;9.70;;;5.80;;
40637;SDS011;26336;44.696;10.622;2023-07-09T13:22:10;7.95;;;5.75;;
40637;SDS011;26336;44.696;10.622;2023-07-09T13:25:20;7.05;;;5.18;;
40637;SDS011;26336;44.696;10.622;2023-07-09T13:28:29;8.27;;;5.47;;
40637;SDS011;26336;44.696;10.622;2023-07-09T13:31:34;8.98;;;5.90;;
40637;SDS011;26336;44.696;10.622;2023-07-09T13:34:38;8.02;;;4.97;;
40637;SDS011;26336;44.696;10.622;2023-07-09T13:37:43;6.90;;;4.90;;
40637;SDS011;26336;44.696;10.622;2023-07-09T13:40:54;6.82;;;5.60;;
40637;SDS011;26336;44.696;10.622;2023-07-09T13:44:00;7.55;;;5.55;;
40637;SDS011;26336;44.696;10.622;2023-07-09T13:47:04;7.97;;;5.72;;
40637;SDS011;26336;44.696;10.622;2023-07-09T13:50:09;9.90;;;6.28;;
40637;SDS011;26336;44.696;10.622;2023-07-09T13:53:14;7.03;;;5.00;;
40637;SDS011;26336;44.696;10.622;2023-07-09T13:56:20;7.63;;;5.72;;
40637;SDS011;26336;44.696;10.622;2023-07-09T13:59:27;9.93;;;5.68;;
40637;SDS011;26336;44.696;10.622;2023-07-09T14:02:31;9.20;;;5.47;;
40637;SDS011;26336;44.696;10.622;2023-07-09T14:05:36;10.50;;;5.70;;
40637;SDS011;26336;44.696;10.622;2023-07-09T14:08:40;8.45;;;5.80;;
40637;SDS011;26336;44.696;10.622;2023-07-09T14:11:48;8.65;;;6.30;;
40637;SDS011;26336;44.696;10.622;2023-07-09T14:14:58;7.85;;;5.88;;
40637;SDS011;26336;44.696;10.622;2023-07-09T14:18:10;8.68;;;5.80;;
40637;SDS011;26336;44.696;10.622;2023-07-09T14:21:18;9.40;;;5.47;;
40637;SDS011;26336;44.696;10.622;2023-07-09T14:24:27;8.95;;;6.28;;
40637;SDS011;26336;44.696;10.622;2023-07-09T14:27:34;7.10;;;5.65;;
40637;SDS011;26336;44.696;10.622;2023-07-09T14:30:38;7.18;;;5.45;;
40637;SDS011;26336;44.696;10.622;2023-07-09T14:33:44;7.70;;;5.88;;
40637;SDS011;26336;44.696;10.622;2023-07-09T14:36:49;10.82;;;5.68;;
40637;SDS011;26336;44.696;10.622;2023-07-09T14:39:57;8.43;;;5.75;;
40637;SDS011;26336;44.696;10.622;2023-07-09T14:43:01;14.80;;;7.30;;
40637;SDS011;26336;44.696;10.622;2023-07-09T14:46:06;7.78;;;5.93;;
40637;SDS011;26336;44.696;10.622;2023-07-09T14:49:10;11.40;;;6.07;;
40637;SDS011;26336;44.696;10.622;2023-07-09T14:52:15;10.35;;;5.60;;
40637;SDS011;26336;44.696;10.622;2023-07-09T14:55:22;7.82;;;5.55;;
40637;SDS011;26336;44.696;10.622;2023-07-09T14:58:29;8.63;;;6.70;;
40637;SDS011;26336;44.696;10.622;2023-07-09T15:01:33;5.80;;;5.18;;
40637;SDS011;26336;44.696;10.622;2023-07-09T15:04:37;7.75;;;5.55;;
40637;SDS011;26336;44.696;10.622;2023-07-09T15:07:41;8.63;;;5.80;;
40637;SDS011;26336;44.696;10.622;2023-07-09T15:10:45;8.23;;;5.90;;
40637;SDS011;26336;44.696;10.622;2023-07-09T15:13:50;8.95;;;5.40;;
40637;SDS011;26336;44.696;10.622;2023-07-09T15:16:54;6.18;;;5.30;;
40637;SDS011;26336;44.696;10.622;2023-07-09T15:19:58;7.68;;;5.47;;
40637;SDS011;26336;44.696;10.622;2023-07-09T15:23:05;8.63;;;5.55;;
40637;SDS011;26336;44.696;10.622;2023-07-09T15:26:13;7.13;;;5.45;;
40637;SDS011;26336;44.696;10.622;2023-07-09T15:29:17;10.10;;;6.00;;
40637;SDS011;26336;44.696;10.622;2023-07-09T15:32:22;9.20;;;6.15;;
40637;SDS011;26336;44.696;10.622;2023-07-09T15:35:31;8.05;;;6.25;;
40637;SDS011;26336;44.696;10.622;2023-07-09T15:38:36;6.18;;;5.18;;
40637;SDS011;26336;44.696;10.622;2023-07-09T15:41:43;7.07;;;5.40;;
40637;SDS011;26336;44.696;10.622;2023-07-09T15:44:48;8.77;;;5.80;;
40637;SDS011;26336;44.696;10.622;2023-07-09T15:47:52;6.40;;;5.35;;
40637;SDS011;26336;44.696;10.622;2023-07-09T15:50:56;9.10;;;5.70;;
40637;SDS011;26336;44.696;10.622;2023-07-09T15:54:00;9.30;;;5.43;;
40637;SDS011;26336;44.696;10.622;2023-07-09T15:57:06;5.97;;;5.28;;
40637;SDS011;26336;44.696;10.622;2023-07-09T16:00:13;8.32;;;5.47;;
40637;SDS011;26336;44.696;10.622;2023-07-09T16:03:27;9.82;;;5.75;;
40637;SDS011;26336;44.696;10.622;2023-07-09T16:06:31;8.50;;;4.90;;
40637;SDS011;26336;44.696;10.622;2023-07-09T16:09:37;8.95;;;5.10;;
40637;SDS011;26336;44.696;10.622;2023-07-09T16:12:42;8.25;;;5.18;;
40637;SDS011;26336;44.696;10.622;2023-07-09T16:15:48;6.07;;;5.03;;
40637;SDS011;26336;44.696;10.622;2023-07-09T16:18:53;9.48;;;5.40;;
40637;SDS011;26336;44.696;10.622;2023-07-09T16:22:00;7.97;;;5.60;;
40637;SDS011;26336;44.696;10.622;2023-07-09T16:28:18;7.03;;;5.70;;
40637;SDS011;26336;44.696;10.622;2023-07-09T16:31:23;11.77;;;5.70;;
40637;SDS011;26336;44.696;10.622;2023-07-09T16:34:27;7.28;;;4.75;;
40637;SDS011;26336;44.696;10.622;2023-07-09T16:37:36;10.85;;;5.47;;
40637;SDS011;26336;44.696;10.622;2023-07-09T16:40:41;8.57;;;5.65;;
40637;SDS011;26336;44.696;10.622;2023-07-09T16:43:46;6.80;;;5.28;;
40637;SDS011;26336;44.696;10.622;2023-07-09T16:46:51;6.85;;;4.85;;
40637;SDS011;26336;44.696;10.622;2023-07-09T16:49:56;8.35;;;5.68;;
40637;SDS011;26336;44.696;10.622;2023-07-09T16:53:00;7.00;;;5.57;;
40637;SDS011;26336;44.696;10.622;2023-07-09T16:56:03;6.22;;;5.22;;
40637;SDS011;26336;44.696;10.622;2023-07-09T16:59:09;6.95;;;5.03;;
40637;SDS011;26336;44.696;10.622;2023-07-09T17:02:18;5.35;;;4.85;;
40637;SDS011;26336;44.696;10.622;2023-07-09T17:05:33;7.30;;;5.43;;
40637;SDS011;26336;44.696;10.622;2023-07-09T17:08:38;8.45;;;5.50;;
40637;SDS011;26336;44.696;10.622;2023-07-09T17:11:46;26.27;;;6.47;;
40637;SDS011;26336;44.696;10.622;2023-07-09T17:14:53;8.38;;;5.38;;
40637;SDS011;26336;44.696;10.622;2023-07-09T17:17:57;10.00;;;5.00;;
40637;SDS011;26336;44.696;10.622;2023-07-09T17:21:03;8.15;;;5.60;;
40637;SDS011;26336;44.696;10.622;2023-07-09T17:24:29;9.32;;;5.60;;
40637;SDS011;26336;44.696;10.622;2023-07-09T17:27:32;6.20;;;4.85;;
40637;SDS011;26336;44.696;10.622;2023-07-09T17:30:36;10.65;;;4.97;;
40637;SDS011;26336;44.696;10.622;2023-07-09T17:33:40;9.25;;;4.80;;
40637;SDS011;26336;44.696;10.622;2023-07-09T17:36:45;8.05;;;5.20;;
40637;SDS011;26336;44.696;10.622;2023-07-09T17:39:53;7.00;;;5.57;;
40637;SDS011;26336;44.696;10.622;2023-07-09T17:42:59;7.88;;;5.28;;
40637;SDS011;26336;44.696;10.622;2023-07-09T17:46:04;6.10;;;5.20;;
40637;SDS011;26336;44.696;10.622;2023-07-09T17:49:30;7.00;;;4.63;;
40637;SDS011;26336;44.696;10.622;2023-07-09T17:52:35;9.57;;;5.65;;
40637;SDS011;26336;44.696;10.622;2023-07-09T17:55:39;10.25;;;5.30;;
40637;SDS011;26336;44.696;10.622;2023-07-09T17:58:43;7.88;;;5.38;;
40637;SDS011;26336;44.696;10.622;2023-07-09T18:02:09;8.20;;;5.07;;
40637;SDS011;26336;44.696;10.622;2023-07-09T18:05:21;6.53;;;5.32;;
40637;SDS011;26336;44.696;10.622;2023-07-09T18:08:28;6.65;;;4.47;;
40637;SDS011;26336;44.696;10.622;2023-07-09T18:11:33;7.13;;;5.07;;
40637;SDS011;26336;44.696;10.622;2023-07-09T18:14:41;7.82;;;5.53;;
40637;SDS011;26336;44.696;10.622;2023-07-09T18:17:47;10.68;;;5.30;;
40637;SDS011;26336;44.696;10.622;2023-07-09T18:20:51;10.57;;;5.53;;
40637;SDS011;26336;44.696;10.622;2023-07-09T18:24:07;8.25;;;5.28;;
40637;SDS011;26336;44.696;10.622;2023-07-09T18:27:14;6.50;;;5.53;;
40637;SDS011;26336;44.696;10.622;2023-07-09T18:30:21;7.15;;;4.90;;
40637;SDS011;26336;44.696;10.622;2023-07-09T18:33:32;10.25;;;5.72;;
40637;SDS011;26336;44.696;10.622;2023-07-09T18:36:39;11.18;;;5.18;;
40637;SDS011;26336;44.696;10.622;2023-07-09T18:39:43;9.13;;;5.50;;
40637;SDS011;26336;44.696;10.622;2023-07-09T18:42:48;8.32;;;5.20;;
40637;SDS011;26336;44.696;10.622;2023-07-09T18:45:52;7.50;;;5.38;;
40637;SDS011;26336;44.696;10.622;2023-07-09T18:48:56;7.47;;;5.07;;
40637;SDS011;26336;44.696;10.622;2023-07-09T18:52:01;7.43;;;5.05;;
40637;SDS011;26336;44.696;10.622;2023-07-09T18:55:07;8.43;;;5.90;;
40637;SDS011;26336;44.696;10.622;2023-07-09T18:58:25;8.43;;;5.45;;
40637;SDS011;26336;44.696;10.622;2023-07-09T19:01:30;6.95;;;5.35;;
40637;SDS011;26336;44.696;10.622;2023-07-09T19:04:34;7.70;;;5.15;;